createdAt,value
2023-01-29T00:03:09.750Z,-1.17
2023-01-29T00:07:27.209Z,-1.34
2023-01-29T00:11:45.233Z,-1.39
2023-01-29T00:16:03.833Z,-1.30
2023-01-29T00:20:21.308Z,-1.08
2023-01-29T00:24:38.861Z,-1.42
2023-01-29T00:28:57.677Z,-1.34
2023-01-29T00:33:15.288Z,-1.53
2023-01-29T00:37:33.039Z,-1.48
2023-01-29T00:42:25.818Z,-1.42
2023-01-29T00:46:43.696Z,-1.44
2023-01-29T00:51:02.855Z,-1.40
2023-01-29T00:55:21.120Z,-1.61
2023-01-29T00:59:38.536Z,-1.61
2023-01-29T01:03:56.168Z,-1.60
2023-01-29T01:08:32.454Z,-1.70
2023-01-29T01:13:19.609Z,-1.67
2023-01-29T01:17:37.044Z,-1.79
2023-01-29T01:21:54.698Z,-1.82
2023-01-29T01:26:12.365Z,-1.72
2023-01-29T01:30:30.070Z,-1.47
2023-01-29T01:34:47.584Z,-1.50
2023-01-29T01:39:05.308Z,-1.65
2023-01-29T01:43:22.935Z,-1.67
2023-01-29T01:47:46.708Z,-1.63
2023-01-29T01:52:04.822Z,-1.65
2023-01-29T01:56:29.195Z,-1.79
2023-01-29T02:00:46.732Z,-1.85
2023-01-29T02:05:23.509Z,-1.79
2023-01-29T02:09:49.229Z,-1.81
2023-01-29T02:14:07.492Z,-1.83
2023-01-29T02:18:24.914Z,-1.81
2023-01-29T02:23:15.273Z,-1.82
2023-01-29T02:28:19.047Z,-1.82
2023-01-29T02:32:54.527Z,-1.77
2023-01-29T02:37:14.169Z,-1.85
2023-01-29T02:41:46.259Z,-1.93
2023-01-29T02:46:33.142Z,-1.86
2023-01-29T02:51:03.637Z,-1.81
2023-01-29T02:55:49.233Z,-1.81
2023-01-29T03:00:38.261Z,-1.78
2023-01-29T03:05:03.337Z,-1.72
2023-01-29T03:09:34.898Z,-1.77
2023-01-29T03:14:13.637Z,-1.82
2023-01-29T03:18:43.768Z,-1.82
2023-01-29T03:23:10.782Z,-2.09
2023-01-29T03:28:19.796Z,-2.12
2023-01-29T03:32:38.717Z,-2.06
2023-01-29T03:37:05.861Z,-2.10
2023-01-29T03:41:34.764Z,-2.14
2023-01-29T03:46:23.353Z,-2.12
2023-01-29T03:51:02.046Z,-2.13
2023-01-29T03:55:56.173Z,-2.24
2023-01-29T04:00:21.315Z,-2.40
2023-01-29T04:04:42.703Z,-2.41
2023-01-29T04:09:22.409Z,-2.32
2023-01-29T04:13:40.370Z,-2.34
2023-01-29T04:17:57.882Z,-2.74
2023-01-29T04:22:25.816Z,-2.85
2023-01-29T04:27:00.282Z,-3.24
2023-01-29T04:31:19.959Z,-3.56
2023-01-29T04:36:15.216Z,-3.79
2023-01-29T04:40:57.430Z,-3.95
2023-01-29T04:45:36.170Z,-4.05
2023-01-29T04:50:17.920Z,-4.02
2023-01-29T04:55:03.885Z,-3.85
2023-01-29T04:59:34.161Z,-3.70
2023-01-29T05:03:54.996Z,-3.70
2023-01-29T05:08:16.330Z,-3.64
2023-01-29T05:12:35.901Z,-3.58
2023-01-29T05:16:56.590Z,-3.56
2023-01-29T05:21:14.176Z,-3.54
2023-01-29T05:25:33.845Z,-3.43
2023-01-29T05:29:51.347Z,-3.44
2023-01-29T05:34:08.916Z,-3.55
2023-01-29T05:38:26.633Z,-3.64
2023-01-29T05:42:44.441Z,-3.64
2023-01-29T05:47:02.926Z,-3.61
2023-01-29T05:51:20.714Z,-3.50
2023-01-29T05:55:38.323Z,-3.28
2023-01-29T05:59:55.441Z,-3.36
2023-01-29T06:04:12.917Z,-3.24
2023-01-29T06:08:31.045Z,-3.24
2023-01-29T06:12:48.622Z,-3.13
2023-01-29T06:17:06.534Z,-2.99
2023-01-29T06:21:24.068Z,-2.96
2023-01-29T06:25:41.621Z,-3.02
2023-01-29T06:29:59.018Z,-2.82
2023-01-29T06:34:16.869Z,-2.86
2023-01-29T06:38:34.650Z,-2.95
2023-01-29T06:42:52.221Z,-2.81
2023-01-29T06:47:09.805Z,-2.78
2023-01-29T06:51:27.684Z,-2.65
2023-01-29T06:55:52.227Z,-2.72
2023-01-29T07:00:10.887Z,-2.82
2023-01-29T07:04:28.325Z,-2.85
2023-01-29T07:08:45.897Z,-2.92
2023-01-29T07:13:03.468Z,-2.84
2023-01-29T07:17:21.549Z,-2.62
2023-01-29T07:21:39.168Z,-2.46
2023-01-29T07:25:56.757Z,-2.57
2023-01-29T07:30:15.120Z,-2.57
2023-01-29T07:34:32.801Z,-2.89
2023-01-29T07:38:51.319Z,-2.71
2023-01-29T07:43:10.114Z,-2.61
2023-01-29T07:47:27.700Z,-2.39
2023-01-29T07:51:45.258Z,-2.56
2023-01-29T07:56:02.999Z,-1.91
2023-01-29T08:00:21.287Z,-1.23
2023-01-29T08:04:38.660Z,-0.10
2023-01-29T08:08:58.144Z,-1.02
2023-01-29T08:13:15.907Z,-1.13
2023-01-29T08:17:33.585Z,-1.48
2023-01-29T08:21:51.129Z,-1.40
2023-01-29T08:26:09.272Z,-1.54
2023-01-29T08:30:28.203Z,-1.48
2023-01-29T08:34:45.823Z,-1.40
2023-01-29T08:39:03.417Z,-1.53
2023-01-29T08:43:20.581Z,-1.65
2023-01-29T08:47:38.059Z,-1.70
2023-01-29T08:51:57.138Z,-1.74
2023-01-29T08:56:16.400Z,-1.81
2023-01-29T09:00:35.284Z,-1.82
2023-01-29T09:04:52.726Z,-1.81
2023-01-29T09:09:11.400Z,-1.96
2023-01-29T09:13:29.048Z,-1.70
2023-01-29T09:17:46.793Z,-1.95
2023-01-29T09:22:04.253Z,-1.58
2023-01-29T09:26:21.944Z,-0.91
2023-01-29T09:30:39.547Z,-1.13
2023-01-29T09:34:57.949Z,-0.91
2023-01-29T09:39:15.406Z,-0.57
2023-01-29T09:43:53.408Z,-1.16
2023-01-29T09:48:11.853Z,-1.22
2023-01-29T09:52:36.227Z,-0.79
2023-01-29T09:56:57.299Z,-0.99
2023-01-29T10:01:26.333Z,-1.32
2023-01-29T10:06:12.339Z,-1.48
2023-01-29T10:11:11.332Z,-1.61
2023-01-29T10:16:01.840Z,-1.40
2023-01-29T10:21:02.390Z,-0.77
2023-01-29T10:25:22.518Z,-0.56
2023-01-29T10:29:43.309Z,-1.06
2023-01-29T10:34:11.214Z,-1.03
2023-01-29T10:38:40.061Z,-1.09
2023-01-29T10:43:31.583Z,-1.26
2023-01-29T10:47:54.717Z,-1.53
2023-01-29T10:52:57.282Z,-0.69
2023-01-29T10:57:38.000Z,-0.67
2023-01-29T11:02:03.551Z,-1.00
2023-01-29T11:06:29.987Z,-0.64
2023-01-29T11:10:58.617Z,-0.43
2023-01-29T11:15:26.670Z,-0.22
2023-01-29T11:19:47.537Z,-0.09
2023-01-29T11:24:18.782Z,-0.29
2023-01-29T11:28:48.151Z,-0.61
2023-01-29T11:33:08.332Z,-0.40
2023-01-29T11:37:36.093Z,-0.29
2023-01-29T11:42:04.181Z,-0.72
2023-01-29T11:46:21.897Z,-0.85
2023-01-29T11:50:39.344Z,-0.72
2023-01-29T11:55:03.381Z,-0.53
2023-01-29T11:59:37.230Z,0.68
2023-01-29T12:03:55.341Z,0.32
2023-01-29T12:08:18.213Z,0.35
2023-01-29T12:12:42.561Z,0.30
2023-01-29T12:17:15.907Z,0.45
2023-01-29T12:22:03.034Z,0.83
2023-01-29T12:26:25.920Z,0.42
2023-01-29T12:31:14.485Z,0.19
2023-01-29T12:36:13.954Z,0.18
2023-01-29T12:40:47.660Z,0.29
2023-01-29T12:45:11.128Z,0.45
2023-01-29T12:49:33.643Z,0.28
2023-01-29T12:54:07.689Z,0.70
2023-01-29T12:58:28.943Z,0.83
2023-01-29T13:03:20.871Z,0.73
2023-01-29T13:07:46.203Z,0.25
2023-01-29T13:12:17.365Z,0.46
2023-01-29T13:16:41.922Z,0.33
2023-01-29T13:21:01.136Z,-0.01
2023-01-29T13:25:20.462Z,-0.13
2023-01-29T13:29:38.159Z,0.22
2023-01-29T13:34:10.299Z,0.26
2023-01-29T13:38:33.614Z,0.02
2023-01-29T13:42:54.273Z,0.64
2023-01-29T13:47:25.117Z,0.14
2023-01-29T13:51:42.705Z,0.08
2023-01-29T13:56:38.543Z,0.46
2023-01-29T14:00:56.410Z,0.61
2023-01-29T14:05:32.479Z,0.35
2023-01-29T14:09:50.113Z,0.01
2023-01-29T14:14:51.438Z,0.08
2023-01-29T14:19:19.276Z,0.12
2023-01-29T14:23:50.834Z,-0.15
2023-01-29T14:28:21.168Z,-0.05
2023-01-29T14:32:40.702Z,-0.19
2023-01-29T14:37:15.338Z,-0.50
2023-01-29T14:41:36.595Z,-0.71
2023-01-29T14:45:54.079Z,-0.78
2023-01-29T14:50:30.363Z,-0.92
2023-01-29T14:54:50.213Z,-0.99
2023-01-29T14:59:21.056Z,-1.08
2023-01-29T15:03:49.998Z,-1.02
2023-01-29T15:08:38.239Z,-0.81
2023-01-29T15:13:19.289Z,-0.93
2023-01-29T15:17:54.832Z,-1.08
2023-01-29T15:22:22.031Z,-1.13
2023-01-29T15:26:43.283Z,-1.23
2023-01-29T15:31:05.980Z,-1.25
2023-01-29T15:35:36.034Z,-1.36
2023-01-29T15:39:54.475Z,-1.48
2023-01-29T15:44:17.415Z,-1.44
2023-01-29T15:48:40.779Z,-1.47
2023-01-29T15:53:03.945Z,-1.50
2023-01-29T15:57:31.345Z,-1.57
2023-01-29T16:01:48.509Z,-1.43
2023-01-29T16:06:07.497Z,-1.29
2023-01-29T16:10:29.082Z,-1.17
2023-01-29T16:14:48.766Z,-1.29
2023-01-29T16:19:21.796Z,-1.27
2023-01-29T16:23:49.023Z,-1.26
2023-01-29T16:28:08.156Z,-1.29
2023-01-29T16:32:26.086Z,-1.30
2023-01-29T16:36:48.380Z,-1.16
2023-01-29T16:41:31.287Z,-1.13
2023-01-29T16:46:15.966Z,-1.19
2023-01-29T16:50:46.336Z,-1.15
2023-01-29T16:55:13.479Z,-1.13
2023-01-29T16:59:39.623Z,-1.25
2023-01-29T17:04:07.241Z,-1.25
2023-01-29T17:08:33.705Z,-1.22
2023-01-29T17:12:55.480Z,-1.26
2023-01-29T17:17:18.936Z,-1.32
2023-01-29T17:21:36.601Z,-1.27
2023-01-29T17:25:54.139Z,-1.39
2023-01-29T17:30:16.806Z,-1.33
2023-01-29T17:34:34.284Z,-1.33
2023-01-29T17:38:51.822Z,-1.40
2023-01-29T17:43:11.886Z,-1.42
2023-01-29T17:47:29.513Z,-1.47
2023-01-29T17:51:46.609Z,-1.48
2023-01-29T17:56:04.559Z,-1.55
2023-01-29T18:00:24.755Z,-1.60
2023-01-29T18:04:42.536Z,-1.53
2023-01-29T18:09:00.212Z,-1.48
2023-01-29T18:13:17.997Z,-1.50
2023-01-29T18:17:35.510Z,-1.43
2023-01-29T18:21:54.395Z,-1.48
2023-01-29T18:26:12.790Z,-1.65
2023-01-29T18:30:30.589Z,-1.74
2023-01-29T18:34:48.231Z,-1.85
2023-01-29T18:39:06.023Z,-1.99
2023-01-29T18:43:26.238Z,-1.98
2023-01-29T18:47:49.547Z,-2.02
2023-01-29T18:52:08.218Z,-1.92
2023-01-29T18:56:26.042Z,-1.92
2023-01-29T19:00:43.955Z,-2.02
2023-01-29T19:05:01.978Z,-2.03
2023-01-29T19:09:19.707Z,-2.05
2023-01-29T19:13:38.331Z,-2.02
2023-01-29T19:17:56.788Z,-1.95
2023-01-29T19:22:16.860Z,-1.93
2023-01-29T19:26:34.734Z,-1.96
2023-01-29T19:30:52.499Z,-2.01
2023-01-29T19:35:10.049Z,-2.07
2023-01-29T19:39:32.837Z,-2.10
2023-01-29T19:43:50.300Z,-2.09
2023-01-29T19:48:08.381Z,-2.06
2023-01-29T19:52:50.374Z,-2.01
2023-01-29T19:57:09.305Z,-1.93
2023-01-29T20:01:29.629Z,-1.98
2023-01-29T20:05:48.452Z,-1.99
2023-01-29T20:10:10.100Z,-2.09
2023-01-29T20:14:27.586Z,-2.20
2023-01-29T20:18:45.263Z,-2.17
2023-01-29T20:23:02.724Z,-2.05
2023-01-29T20:27:20.371Z,-2.05
2023-01-29T20:31:37.866Z,-2.13
2023-01-29T20:35:58.616Z,-2.13
2023-01-29T20:40:16.791Z,-2.02
2023-01-29T20:44:34.547Z,-2.01
2023-01-29T20:48:54.140Z,-2.05
2023-01-29T20:53:12.110Z,-2.09
2023-01-29T20:57:29.863Z,-2.05
2023-01-29T21:01:47.487Z,-1.99
2023-01-29T21:06:06.321Z,-2.07
2023-01-29T21:10:24.282Z,-2.02
2023-01-29T21:14:41.775Z,-1.98
2023-01-29T21:19:00.208Z,-1.96
2023-01-29T21:23:18.032Z,-1.89
2023-01-29T21:27:36.071Z,-1.93
2023-01-29T21:31:53.593Z,-1.98
2023-01-29T21:36:12.223Z,-1.93
2023-01-29T21:40:30.654Z,-1.98
2023-01-29T21:44:48.277Z,-1.91
2023-01-29T21:49:05.879Z,-2.02
2023-01-29T21:53:23.570Z,-1.99
2023-01-29T21:57:42.904Z,-2.02
2023-01-29T22:02:01.601Z,-2.01
2023-01-29T22:06:19.159Z,-2.06
2023-01-29T22:10:37.947Z,-2.09
2023-01-29T22:14:55.473Z,-2.07
2023-01-29T22:19:14.012Z,-1.98
2023-01-29T22:23:32.528Z,-2.06
2023-01-29T22:27:51.137Z,-2.05
2023-01-29T22:32:10.123Z,-2.01
2023-01-29T22:36:27.673Z,-1.98
2023-01-29T22:40:56.464Z,-2.02
2023-01-29T22:45:14.042Z,-1.93
2023-01-29T22:49:31.620Z,-1.88
2023-01-29T22:53:56.928Z,-1.88
2023-01-29T22:58:14.395Z,-1.93
2023-01-29T23:02:31.992Z,-1.86
2023-01-29T23:06:49.503Z,-1.92
2023-01-29T23:11:17.912Z,-1.88
2023-01-29T23:15:35.346Z,-1.86
2023-01-29T23:19:52.977Z,-1.85
2023-01-29T23:24:10.923Z,-1.78
2023-01-29T23:28:28.710Z,-1.83
2023-01-29T23:32:46.285Z,-1.91
2023-01-29T23:37:03.682Z,-1.85
2023-01-29T23:41:21.584Z,-1.89
2023-01-29T23:45:39.052Z,-1.88
2023-01-29T23:49:56.748Z,-1.91
2023-01-29T23:54:14.476Z,-1.95
2023-01-29T23:58:32.853Z,-1.95
